Flight Track Log - Related Links

Times and Time Zones

All times are in EDT time to prevent confusion due to time zone crossing. See the N560HM flight status page for this flight to view local times or setup timezone preferences in your user account.

Time Position Orientation Groundspeed Altitude Reporting Facility
EDT Latitude Longitude Course Direction KTS MPH feet Rate Location/Type
Mon 01:58:55 PM 42.9333 -78.7333 207° Southwest 177 204 1,500  Level Buffalo TRACON
Mon 02:00:33 PM 42.8411 -78.7983 207° Southwest 233 268 7,900 3,563 Climbing Cleveland Center
Mon 02:01:35 PM 42.7722 -78.8311 199° South 245 282 11,000 2,613 Climbing Cleveland Center
Mon 02:02:37 PM 42.6981 -78.8656 199° South 278 320 13,300 2,177 Climbing Cleveland Center
Mon 02:03:39 PM 42.6181 -78.8858 191° South 292 336 15,500 1,355 Climbing Cleveland Center
Mon 02:04:41 PM 42.5289 -78.9061 190° South 326 375 16,100 242 Climbing Cleveland Center
Mon 02:05:43 PM 42.4325 -78.9308 191° South 342 394 16,000 -48 Descending Cleveland Center
Mon 02:06:45 PM 42.3386 -78.9544 191° South 343 395 16,000  Level Cleveland Center
Mon 02:07:47 PM 42.2267 -78.9814 190° South 344 396 16,000  Level Cleveland Center
Mon 02:08:49 PM 42.1331 -79.0061 191° South 344 396 16,000  Level Cleveland Center
Mon 02:09:51 PM 42.0403 -79.0300 191° South 343 395 16,000  Level Cleveland Center
Mon 02:10:53 PM 41.9478 -79.0522 190° South 342 394 16,000 -48 Level Cleveland Center
Mon 02:11:55 PM 41.8547 -79.0736 190° South 344 396 15,900 -48 Descending Cleveland Center
Mon 02:12:57 PM 41.7425 -79.1028 191° South 344 396 15,900  Level Cleveland Center
Mon 02:13:58 PM 41.6483 -79.1267 191° South 343 395 15,900  Level Cleveland Center
Mon 02:15:00 PM 41.5558 -79.1511 191° South 343 395 15,900  Level Cleveland Center
Mon 02:16:02 PM 41.4625 -79.1739 190° South 343 395 15,900  Level Cleveland Center
Mon 02:17:04 PM 41.3711 -79.1953 190° South 342 394 15,900  Level Cleveland Center
Mon 02:18:06 PM 41.2797 -79.2175 190° South 340 391 15,900  Level Cleveland Center
Mon 02:19:08 PM 41.1697 -79.2453 191° South 339 390 15,900 -48 Level Cleveland Center
Mon 02:20:10 PM 41.0858 -79.2650 190° South 339 390 15,800 -726 Descending Cleveland Center
Mon 02:21:12 PM 40.9964 -79.2861 190° South 330 380 14,400 -1,538 Descending Cleveland Center
Mon 02:21:28 PM 40.9594 -79.2964 192° South 329 379 13,800 -1,941 Descending Cleveland Center
Mon 02:21:46 PM 40.9297 -79.3031 190° South 331 381 13,300 -1,043 Descending Cleveland Center
Mon 02:22:14 PM 40.9047 -79.3092 190° South 330 380 13,000 -1,279 Descending Cleveland Center
Mon 02:22:47 PM 40.8400 -79.3233 189° South 327 376 12,000 -1,548 Descending Cleveland Center
Mon 02:23:16 PM 40.8000 -79.3336 191° South 324 373 11,400 -1,279 Descending Cleveland Center
Mon 02:23:48 PM 40.7606 -79.3447 192° South 295 339 10,700 -1,258 Descending Cleveland Center
Mon 02:24:18 PM 40.7219 -79.3522 188° South 298 343 10,100 -1,300 Descending Cleveland Center
Mon 02:24:48 PM 40.6792 -79.3633 191° South 275 316 9,400 -1,161 Descending Cleveland Center
Mon 02:25:20 PM 40.6464 -79.3711 190° South 284 327 8,900 -1,279 Descending Cleveland Center
Mon 02:25:49 PM 40.6044 -79.3800 189° South 273 314 8,100 -1,258 Descending Cleveland Center
Mon 02:26:22 PM 40.5719 -79.3883 191° South 277 319 7,600 -1,300 Descending Cleveland Center
Mon 02:26:49 PM 40.5336 -79.3997 193° South 267 307 6,800 -1,143 Descending Cleveland Center
Mon 02:27:25 PM 40.5103 -79.4172 210° Southwest 260 299 6,400 -796 Descending Cleveland Center
Mon 02:28:27 PM 40.4847 -79.4936 246° West 235 270 5,500 -871 Descending Cleveland Center
Mon 02:29:29 PM 40.4539 -79.5856 246° West 233 268 4,600 -968 Descending Cleveland Center
Mon 02:30:31 PM 40.4228 -79.6556 240° Southwest 227 261 3,500 -726 Descending Cleveland Center
Mon 02:31:33 PM 40.3964 -79.7217 242° Southwest 218 251 3,100 -242 Descending Cleveland Center
Mon 02:32:35 PM 40.3772 -79.7778 246° West 185 213 3,000 -145 Descending Cleveland Center
Mon 02:33:37 PM 40.3597 -79.8325 247° West 173 199 2,800 -484 Descending Cleveland Center
Mon 02:34:39 PM 40.3542 -79.8811 261° West 150 173 2,000 -726 Descending Cleveland Center
Mon 02:35:41 PM 40.3539 -79.9219 270° West 129 148 1,300 -677 Descending Cleveland Center
Mon 02:37:00 PM 40.3500 -79.9167 270° West  Level FlightAware Approximate

Login

Don't have an account? Register now (free) for customized features, flight alerts, and more!